sensor_id;sensor_type;location;lat;lon;timestamp;P1;durP1;ratioP1;P2;durP2;ratioP2
4313;SDS011;2170;48.794;9.182;2022-10-17T00:00:38;5.80;;;4.97;;
4313;SDS011;2170;48.794;9.182;2022-10-17T00:03:05;7.40;;;5.60;;
4313;SDS011;2170;48.794;9.182;2022-10-17T00:05:32;5.63;;;5.10;;
4313;SDS011;2170;48.794;9.182;2022-10-17T00:07:59;5.57;;;5.10;;
4313;SDS011;2170;48.794;9.182;2022-10-17T00:10:26;5.47;;;4.97;;
4313;SDS011;2170;48.794;9.182;2022-10-17T00:12:53;6.40;;;5.90;;
4313;SDS011;2170;48.794;9.182;2022-10-17T00:15:20;5.63;;;5.13;;
4313;SDS011;2170;48.794;9.182;2022-10-17T00:17:49;8.23;;;5.13;;
4313;SDS011;2170;48.794;9.182;2022-10-17T00:20:16;6.40;;;5.37;;
4313;SDS011;2170;48.794;9.182;2022-10-17T00:22:43;5.67;;;5.10;;
4313;SDS011;2170;48.794;9.182;2022-10-17T00:25:10;7.47;;;5.53;;
4313;SDS011;2170;48.794;9.182;2022-10-17T00:27:38;6.27;;;5.67;;
4313;SDS011;2170;48.794;9.182;2022-10-17T00:30:06;6.57;;;5.80;;
4313;SDS011;2170;48.794;9.182;2022-10-17T00:32:34;6.57;;;5.80;;
4313;SDS011;2170;48.794;9.182;2022-10-17T00:35:02;6.30;;;5.70;;
4313;SDS011;2170;48.794;9.182;2022-10-17T00:37:30;6.57;;;4.97;;
4313;SDS011;2170;48.794;9.182;2022-10-17T00:39:57;6.70;;;6.00;;
4313;SDS011;2170;48.794;9.182;2022-10-17T00:42:24;5.90;;;5.30;;
4313;SDS011;2170;48.794;9.182;2022-10-17T00:45:12;5.90;;;5.40;;
4313;SDS011;2170;48.794;9.182;2022-10-17T00:47:39;9.60;;;5.63;;
4313;SDS011;2170;48.794;9.182;2022-10-17T00:50:08;5.50;;;5.10;;
4313;SDS011;2170;48.794;9.182;2022-10-17T00:52:36;6.13;;;5.63;;
4313;SDS011;2170;48.794;9.182;2022-10-17T00:55:05;9.97;;;5.33;;
4313;SDS011;2170;48.794;9.182;2022-10-17T00:57:34;7.10;;;5.20;;
4313;SDS011;2170;48.794;9.182;2022-10-17T01:00:03;5.53;;;4.97;;
4313;SDS011;2170;48.794;9.182;2022-10-17T01:02:30;6.60;;;4.97;;
4313;SDS011;2170;48.794;9.182;2022-10-17T01:04:57;6.57;;;4.40;;
4313;SDS011;2170;48.794;9.182;2022-10-17T01:07:26;5.53;;;4.90;;
4313;SDS011;2170;48.794;9.182;2022-10-17T01:09:54;5.23;;;4.73;;
4313;SDS011;2170;48.794;9.182;2022-10-17T01:12:22;5.83;;;4.50;;
4313;SDS011;2170;48.794;9.182;2022-10-17T01:14:54;5.70;;;5.10;;
4313;SDS011;2170;48.794;9.182;2022-10-17T01:17:25;5.03;;;4.63;;
4313;SDS011;2170;48.794;9.182;2022-10-17T01:20:02;7.97;;;5.17;;
4313;SDS011;2170;48.794;9.182;2022-10-17T01:22:35;4.97;;;4.57;;
4313;SDS011;2170;48.794;9.182;2022-10-17T01:25:10;6.70;;;4.43;;
4313;SDS011;2170;48.794;9.182;2022-10-17T01:27:49;5.07;;;4.50;;
4313;SDS011;2170;48.794;9.182;2022-10-17T01:33:08;4.97;;;4.37;;
4313;SDS011;2170;48.794;9.182;2022-10-17T01:35:37;5.27;;;4.43;;
4313;SDS011;2170;48.794;9.182;2022-10-17T01:38:06;5.00;;;4.50;;
4313;SDS011;2170;48.794;9.182;2022-10-17T01:40:36;5.47;;;4.30;;
4313;SDS011;2170;48.794;9.182;2022-10-17T01:43:06;5.93;;;4.37;;
4313;SDS011;2170;48.794;9.182;2022-10-17T01:45:36;4.50;;;4.10;;
4313;SDS011;2170;48.794;9.182;2022-10-17T01:48:04;7.00;;;3.90;;
4313;SDS011;2170;48.794;9.182;2022-10-17T01:50:35;5.00;;;4.27;;
4313;SDS011;2170;48.794;9.182;2022-10-17T01:53:04;6.47;;;4.30;;
4313;SDS011;2170;48.794;9.182;2022-10-17T01:55:34;5.00;;;4.50;;
4313;SDS011;2170;48.794;9.182;2022-10-17T01:58:02;6.60;;;4.13;;
4313;SDS011;2170;48.794;9.182;2022-10-17T02:00:31;6.27;;;4.60;;
4313;SDS011;2170;48.794;9.182;2022-10-17T02:03:03;4.77;;;4.20;;
4313;SDS011;2170;48.794;9.182;2022-10-17T02:05:31;8.03;;;4.50;;
4313;SDS011;2170;48.794;9.182;2022-10-17T02:08:00;4.90;;;4.40;;
4313;SDS011;2170;48.794;9.182;2022-10-17T02:10:29;4.90;;;4.40;;
4313;SDS011;2170;48.794;9.182;2022-10-17T02:12:59;5.50;;;4.20;;
4313;SDS011;2170;48.794;9.182;2022-10-17T02:15:34;4.30;;;3.93;;
4313;SDS011;2170;48.794;9.182;2022-10-17T02:18:07;4.20;;;3.90;;
4313;SDS011;2170;48.794;9.182;2022-10-17T02:20:42;6.40;;;4.23;;
4313;SDS011;2170;48.794;9.182;2022-10-17T02:23:16;4.50;;;4.13;;
4313;SDS011;2170;48.794;9.182;2022-10-17T02:25:47;7.90;;;4.13;;
4313;SDS011;2170;48.794;9.182;2022-10-17T02:28:18;4.47;;;3.90;;
4313;SDS011;2170;48.794;9.182;2022-10-17T02:30:48;6.20;;;5.20;;
4313;SDS011;2170;48.794;9.182;2022-10-17T02:33:17;4.93;;;4.53;;
4313;SDS011;2170;48.794;9.182;2022-10-17T02:35:48;6.10;;;4.07;;
4313;SDS011;2170;48.794;9.182;2022-10-17T02:38:18;4.83;;;4.50;;
4313;SDS011;2170;48.794;9.182;2022-10-17T02:40:46;5.80;;;4.60;;
4313;SDS011;2170;48.794;9.182;2022-10-17T02:43:16;4.33;;;3.90;;
4313;SDS011;2170;48.794;9.182;2022-10-17T02:45:43;6.30;;;4.10;;
4313;SDS011;2170;48.794;9.182;2022-10-17T02:48:13;6.43;;;4.70;;
4313;SDS011;2170;48.794;9.182;2022-10-17T02:50:43;5.10;;;4.70;;
4313;SDS011;2170;48.794;9.182;2022-10-17T02:53:13;5.20;;;4.40;;
4313;SDS011;2170;48.794;9.182;2022-10-17T02:55:45;5.30;;;4.53;;
4313;SDS011;2170;48.794;9.182;2022-10-17T02:58:15;4.60;;;4.20;;
4313;SDS011;2170;48.794;9.182;2022-10-17T03:00:44;4.33;;;3.93;;
4313;SDS011;2170;48.794;9.182;2022-10-17T03:03:18;4.13;;;3.83;;
4313;SDS011;2170;48.794;9.182;2022-10-17T03:05:46;5.10;;;4.00;;
4313;SDS011;2170;48.794;9.182;2022-10-17T03:08:13;6.00;;;4.03;;
4313;SDS011;2170;48.794;9.182;2022-10-17T03:10:40;6.23;;;4.40;;
4313;SDS011;2170;48.794;9.182;2022-10-17T03:13:08;4.83;;;4.43;;
4313;SDS011;2170;48.794;9.182;2022-10-17T03:15:35;6.03;;;4.67;;
4313;SDS011;2170;48.794;9.182;2022-10-17T03:18:03;5.03;;;4.67;;
4313;SDS011;2170;48.794;9.182;2022-10-17T03:20:30;4.33;;;4.03;;
4313;SDS011;2170;48.794;9.182;2022-10-17T03:22:57;6.00;;;5.50;;
4313;SDS011;2170;48.794;9.182;2022-10-17T03:25:24;5.27;;;3.97;;
4313;SDS011;2170;48.794;9.182;2022-10-17T03:27:51;6.87;;;4.27;;
4313;SDS011;2170;48.794;9.182;2022-10-17T03:30:19;5.00;;;4.60;;
4313;SDS011;2170;48.794;9.182;2022-10-17T03:32:46;10.13;;;4.77;;
4313;SDS011;2170;48.794;9.182;2022-10-17T03:35:13;5.53;;;4.50;;
4313;SDS011;2170;48.794;9.182;2022-10-17T03:37:40;5.20;;;4.67;;
4313;SDS011;2170;48.794;9.182;2022-10-17T03:40:08;10.93;;;4.60;;
4313;SDS011;2170;48.794;9.182;2022-10-17T03:42:35;7.13;;;5.43;;
4313;SDS011;2170;48.794;9.182;2022-10-17T03:45:02;6.37;;;4.60;;
4313;SDS011;2170;48.794;9.182;2022-10-17T03:47:31;7.17;;;4.53;;
4313;SDS011;2170;48.794;9.182;2022-10-17T03:49:58;6.90;;;5.47;;
4313;SDS011;2170;48.794;9.182;2022-10-17T03:52:25;5.43;;;4.93;;
4313;SDS011;2170;48.794;9.182;2022-10-17T03:54:52;6.67;;;4.60;;
4313;SDS011;2170;48.794;9.182;2022-10-17T03:57:19;5.67;;;5.17;;
4313;SDS011;2170;48.794;9.182;2022-10-17T03:59:46;5.07;;;4.20;;
4313;SDS011;2170;48.794;9.182;2022-10-17T04:02:13;5.00;;;4.50;;
4313;SDS011;2170;48.794;9.182;2022-10-17T04:04:41;4.67;;;4.27;;
4313;SDS011;2170;48.794;9.182;2022-10-17T04:07:08;6.80;;;4.37;;
4313;SDS011;2170;48.794;9.182;2022-10-17T04:09:35;5.23;;;4.53;;
4313;SDS011;2170;48.794;9.182;2022-10-17T04:12:03;6.00;;;4.40;;
4313;SDS011;2170;48.794;9.182;2022-10-17T04:14:30;6.50;;;4.90;;
4313;SDS011;2170;48.794;9.182;2022-10-17T04:16:57;7.40;;;5.33;;
4313;SDS011;2170;48.794;9.182;2022-10-17T04:19:24;5.70;;;5.20;;
4313;SDS011;2170;48.794;9.182;2022-10-17T04:21:52;5.30;;;4.90;;
4313;SDS011;2170;48.794;9.182;2022-10-17T04:24:19;6.47;;;5.37;;
4313;SDS011;2170;48.794;9.182;2022-10-17T04:26:47;5.83;;;4.80;;
4313;SDS011;2170;48.794;9.182;2022-10-17T04:29:15;6.87;;;5.00;;
4313;SDS011;2170;48.794;9.182;2022-10-17T04:31:43;7.00;;;5.10;;
4313;SDS011;2170;48.794;9.182;2022-10-17T04:34:10;13.13;;;11.03;;
4313;SDS011;2170;48.794;9.182;2022-10-17T04:36:38;8.20;;;6.47;;
4313;SDS011;2170;48.794;9.182;2022-10-17T04:39:06;6.50;;;5.73;;
4313;SDS011;2170;48.794;9.182;2022-10-17T04:41:34;6.83;;;5.47;;
4313;SDS011;2170;48.794;9.182;2022-10-17T04:44:01;5.30;;;4.70;;
4313;SDS011;2170;48.794;9.182;2022-10-17T04:46:28;7.63;;;6.27;;
4313;SDS011;2170;48.794;9.182;2022-10-17T04:48:55;18.53;;;16.93;;
4313;SDS011;2170;48.794;9.182;2022-10-17T04:51:22;8.47;;;7.00;;
4313;SDS011;2170;48.794;9.182;2022-10-17T04:53:49;7.60;;;5.23;;
4313;SDS011;2170;48.794;9.182;2022-10-17T04:56:18;12.13;;;5.43;;
4313;SDS011;2170;48.794;9.182;2022-10-17T04:58:45;6.33;;;5.73;;
4313;SDS011;2170;48.794;9.182;2022-10-17T05:01:13;7.17;;;5.33;;
4313;SDS011;2170;48.794;9.182;2022-10-17T05:03:41;5.97;;;4.90;;
4313;SDS011;2170;48.794;9.182;2022-10-17T05:06:09;8.27;;;5.37;;
4313;SDS011;2170;48.794;9.182;2022-10-17T05:08:36;7.90;;;5.50;;
4313;SDS011;2170;48.794;9.182;2022-10-17T05:11:03;8.07;;;5.50;;
4313;SDS011;2170;48.794;9.182;2022-10-17T05:13:32;5.80;;;5.20;;
4313;SDS011;2170;48.794;9.182;2022-10-17T05:15:59;8.93;;;5.90;;
4313;SDS011;2170;48.794;9.182;2022-10-17T05:18:26;7.10;;;5.27;;
4313;SDS011;2170;48.794;9.182;2022-10-17T05:20:53;6.13;;;5.53;;
4313;SDS011;2170;48.794;9.182;2022-10-17T05:23:20;5.30;;;4.80;;
4313;SDS011;2170;48.794;9.182;2022-10-17T05:25:52;5.83;;;5.10;;
4313;SDS011;2170;48.794;9.182;2022-10-17T05:28:19;6.70;;;5.33;;
4313;SDS011;2170;48.794;9.182;2022-10-17T05:30:47;8.60;;;6.03;;
4313;SDS011;2170;48.794;9.182;2022-10-17T05:33:15;10.73;;;8.60;;
4313;SDS011;2170;48.794;9.182;2022-10-17T05:35:42;9.80;;;6.50;;
4313;SDS011;2170;48.794;9.182;2022-10-17T05:38:09;6.50;;;5.90;;
4313;SDS011;2170;48.794;9.182;2022-10-17T05:40:36;10.43;;;6.10;;
4313;SDS011;2170;48.794;9.182;2022-10-17T05:43:03;6.23;;;5.63;;
4313;SDS011;2170;48.794;9.182;2022-10-17T05:45:30;8.43;;;5.93;;
4313;SDS011;2170;48.794;9.182;2022-10-17T05:47:59;7.50;;;6.00;;
4313;SDS011;2170;48.794;9.182;2022-10-17T05:50:26;5.60;;;5.20;;
4313;SDS011;2170;48.794;9.182;2022-10-17T05:52:53;6.17;;;5.60;;
4313;SDS011;2170;48.794;9.182;2022-10-17T05:55:20;6.20;;;5.70;;
4313;SDS011;2170;48.794;9.182;2022-10-17T05:57:47;7.83;;;6.27;;
4313;SDS011;2170;48.794;9.182;2022-10-17T06:00:16;19.93;;;6.80;;
4313;SDS011;2170;48.794;9.182;2022-10-17T06:02:44;8.43;;;6.33;;
4313;SDS011;2170;48.794;9.182;2022-10-17T06:05:12;10.90;;;7.00;;
4313;SDS011;2170;48.794;9.182;2022-10-17T06:07:40;7.10;;;6.40;;
4313;SDS011;2170;48.794;9.182;2022-10-17T06:10:07;7.00;;;6.40;;
4313;SDS011;2170;48.794;9.182;2022-10-17T06:12:36;7.40;;;5.90;;
4313;SDS011;2170;48.794;9.182;2022-10-17T06:15:03;9.00;;;6.60;;
4313;SDS011;2170;48.794;9.182;2022-10-17T06:17:30;7.37;;;6.13;;
4313;SDS011;2170;48.794;9.182;2022-10-17T06:19:57;7.00;;;5.53;;
4313;SDS011;2170;48.794;9.182;2022-10-17T06:22:26;9.20;;;7.13;;
4313;SDS011;2170;48.794;9.182;2022-10-17T06:24:53;8.67;;;6.50;;
4313;SDS011;2170;48.794;9.182;2022-10-17T06:27:20;12.27;;;7.30;;
4313;SDS011;2170;48.794;9.182;2022-10-17T06:29:47;8.17;;;6.90;;
4313;SDS011;2170;48.794;9.182;2022-10-17T06:32:16;7.70;;;6.77;;
4313;SDS011;2170;48.794;9.182;2022-10-17T06:34:43;11.80;;;10.77;;
4313;SDS011;2170;48.794;9.182;2022-10-17T06:37:10;7.90;;;7.07;;
4313;SDS011;2170;48.794;9.182;2022-10-17T06:39:38;8.40;;;7.60;;
4313;SDS011;2170;48.794;9.182;2022-10-17T06:42:05;12.87;;;8.20;;
4313;SDS011;2170;48.794;9.182;2022-10-17T06:44:32;8.53;;;7.60;;
4313;SDS011;2170;48.794;9.182;2022-10-17T06:47:00;7.73;;;6.93;;
4313;SDS011;2170;48.794;9.182;2022-10-17T06:49:27;10.30;;;7.90;;
4313;SDS011;2170;48.794;9.182;2022-10-17T06:51:54;8.60;;;7.07;;
4313;SDS011;2170;48.794;9.182;2022-10-17T06:54:21;7.67;;;6.93;;
4313;SDS011;2170;48.794;9.182;2022-10-17T06:56:49;10.00;;;8.73;;
4313;SDS011;2170;48.794;9.182;2022-10-17T06:59:16;8.03;;;7.23;;
4313;SDS011;2170;48.794;9.182;2022-10-17T07:01:43;11.50;;;7.00;;
4313;SDS011;2170;48.794;9.182;2022-10-17T07:04:10;10.20;;;7.90;;
4313;SDS011;2170;48.794;9.182;2022-10-17T07:06:37;7.53;;;6.07;;
4313;SDS011;2170;48.794;9.182;2022-10-17T07:09:04;7.27;;;5.83;;
4313;SDS011;2170;48.794;9.182;2022-10-17T07:11:32;7.13;;;5.97;;
4313;SDS011;2170;48.794;9.182;2022-10-17T07:14:01;10.30;;;6.63;;
4313;SDS011;2170;48.794;9.182;2022-10-17T07:16:28;9.63;;;7.20;;
4313;SDS011;2170;48.794;9.182;2022-10-17T07:18:55;11.30;;;6.77;;
4313;SDS011;2170;48.794;9.182;2022-10-17T07:21:22;6.87;;;6.17;;
4313;SDS011;2170;48.794;9.182;2022-10-17T07:23:49;7.43;;;6.10;;
4313;SDS011;2170;48.794;9.182;2022-10-17T07:26:17;7.23;;;5.97;;
4313;SDS011;2170;48.794;9.182;2022-10-17T07:28:45;7.30;;;6.20;;
4313;SDS011;2170;48.794;9.182;2022-10-17T07:31:14;7.40;;;6.40;;
4313;SDS011;2170;48.794;9.182;2022-10-17T07:33:41;9.60;;;6.47;;
4313;SDS011;2170;48.794;9.182;2022-10-17T07:36:08;9.73;;;6.33;;
4313;SDS011;2170;48.794;9.182;2022-10-17T07:38:35;7.50;;;6.50;;
4313;SDS011;2170;48.794;9.182;2022-10-17T07:41:04;7.87;;;7.13;;
4313;SDS011;2170;48.794;9.182;2022-10-17T07:43:31;8.00;;;6.50;;
4313;SDS011;2170;48.794;9.182;2022-10-17T07:45:59;7.73;;;6.17;;
4313;SDS011;2170;48.794;9.182;2022-10-17T07:48:28;6.53;;;5.97;;
4313;SDS011;2170;48.794;9.182;2022-10-17T07:50:55;10.43;;;5.40;;
4313;SDS011;2170;48.794;9.182;2022-10-17T07:53:22;5.27;;;4.80;;
4313;SDS011;2170;48.794;9.182;2022-10-17T07:55:49;5.27;;;4.60;;
4313;SDS011;2170;48.794;9.182;2022-10-17T07:58:16;5.00;;;4.50;;
4313;SDS011;2170;48.794;9.182;2022-10-17T08:00:43;11.13;;;5.90;;
4313;SDS011;2170;48.794;9.182;2022-10-17T08:03:12;6.53;;;5.03;;
4313;SDS011;2170;48.794;9.182;2022-10-17T08:05:40;5.47;;;4.70;;
4313;SDS011;2170;48.794;9.182;2022-10-17T08:08:07;6.23;;;4.37;;
4313;SDS011;2170;48.794;9.182;2022-10-17T08:10:34;8.83;;;4.90;;
4313;SDS011;2170;48.794;9.182;2022-10-17T08:13:02;6.43;;;5.50;;
4313;SDS011;2170;48.794;9.182;2022-10-17T08:15:29;5.73;;;4.73;;
4313;SDS011;2170;48.794;9.182;2022-10-17T08:17:56;4.80;;;4.37;;
4313;SDS011;2170;48.794;9.182;2022-10-17T08:20:24;8.33;;;5.10;;
4313;SDS011;2170;48.794;9.182;2022-10-17T08:22:52;5.87;;;4.37;;
4313;SDS011;2170;48.794;9.182;2022-10-17T08:25:20;5.60;;;4.63;;
4313;SDS011;2170;48.794;9.182;2022-10-17T08:27:47;6.63;;;4.10;;
4313;SDS011;2170;48.794;9.182;2022-10-17T08:30:14;10.50;;;4.80;;
4313;SDS011;2170;48.794;9.182;2022-10-17T08:32:41;6.70;;;4.77;;
4313;SDS011;2170;48.794;9.182;2022-10-17T08:35:08;5.83;;;4.50;;
4313;SDS011;2170;48.794;9.182;2022-10-17T08:37:36;7.20;;;4.73;;
4313;SDS011;2170;48.794;9.182;2022-10-17T08:40:05;6.50;;;5.00;;
4313;SDS011;2170;48.794;9.182;2022-10-17T08:42:41;6.40;;;4.93;;
4313;SDS011;2170;48.794;9.182;2022-10-17T08:45:14;6.67;;;4.23;;
4313;SDS011;2170;48.794;9.182;2022-10-17T08:47:43;8.17;;;5.43;;
4313;SDS011;2170;48.794;9.182;2022-10-17T08:50:11;6.27;;;4.73;;
4313;SDS011;2170;48.794;9.182;2022-10-17T08:52:41;8.70;;;4.43;;
4313;SDS011;2170;48.794;9.182;2022-10-17T08:55:13;5.80;;;4.10;;
4313;SDS011;2170;48.794;9.182;2022-10-17T08:57:41;5.97;;;4.40;;
4313;SDS011;2170;48.794;9.182;2022-10-17T09:00:12;14.33;;;4.00;;
4313;SDS011;2170;48.794;9.182;2022-10-17T09:02:42;5.00;;;4.17;;
4313;SDS011;2170;48.794;9.182;2022-10-17T09:05:21;5.50;;;3.60;;
4313;SDS011;2170;48.794;9.182;2022-10-17T09:07:51;8.37;;;3.80;;
4313;SDS011;2170;48.794;9.182;2022-10-17T09:10:22;7.90;;;4.10;;
4313;SDS011;2170;48.794;9.182;2022-10-17T09:12:53;8.60;;;4.30;;
4313;SDS011;2170;48.794;9.182;2022-10-17T09:15:29;8.60;;;4.83;;
4313;SDS011;2170;48.794;9.182;2022-10-17T09:17:58;4.33;;;3.80;;
4313;SDS011;2170;48.794;9.182;2022-10-17T09:20:27;5.97;;;4.03;;
4313;SDS011;2170;48.794;9.182;2022-10-17T09:22:56;4.20;;;3.80;;
4313;SDS011;2170;48.794;9.182;2022-10-17T09:25:25;5.03;;;3.57;;
4313;SDS011;2170;48.794;9.182;2022-10-17T09:27:55;6.20;;;4.30;;
4313;SDS011;2170;48.794;9.182;2022-10-17T09:30:30;7.37;;;4.53;;
4313;SDS011;2170;48.794;9.182;2022-10-17T09:32:59;7.20;;;4.17;;
4313;SDS011;2170;48.794;9.182;2022-10-17T09:35:27;3.90;;;3.60;;
4313;SDS011;2170;48.794;9.182;2022-10-17T09:37:55;7.70;;;4.00;;
4313;SDS011;2170;48.794;9.182;2022-10-17T09:40:23;5.83;;;3.77;;
4313;SDS011;2170;48.794;9.182;2022-10-17T09:42:52;6.13;;;3.97;;
4313;SDS011;2170;48.794;9.182;2022-10-17T09:45:20;5.50;;;3.60;;
4313;SDS011;2170;48.794;9.182;2022-10-17T09:47:52;5.50;;;3.30;;
4313;SDS011;2170;48.794;9.182;2022-10-17T09:50:20;5.13;;;3.97;;
4313;SDS011;2170;48.794;9.182;2022-10-17T09:52:47;6.17;;;3.90;;
4313;SDS011;2170;48.794;9.182;2022-10-17T09:55:16;6.87;;;3.77;;
4313;SDS011;2170;48.794;9.182;2022-10-17T09:57:50;10.93;;;3.93;;
4313;SDS011;2170;48.794;9.182;2022-10-17T10:00:21;5.43;;;3.97;;
4313;SDS011;2170;48.794;9.182;2022-10-17T10:02:48;4.73;;;3.30;;
4313;SDS011;2170;48.794;9.182;2022-10-17T10:05:16;9.47;;;3.87;;
4313;SDS011;2170;48.794;9.182;2022-10-17T10:07:45;5.93;;;3.50;;
4313;SDS011;2170;48.794;9.182;2022-10-17T10:10:26;4.67;;;3.60;;
4313;SDS011;2170;48.794;9.182;2022-10-17T10:13:15;9.17;;;8.00;;
4313;SDS011;2170;48.794;9.182;2022-10-17T10:15:46;4.50;;;3.77;;
4313;SDS011;2170;48.794;9.182;2022-10-17T10:18:30;3.70;;;3.30;;
4313;SDS011;2170;48.794;9.182;2022-10-17T10:21:10;5.03;;;3.20;;
4313;SDS011;2170;48.794;9.182;2022-10-17T10:23:38;5.93;;;3.70;;
4313;SDS011;2170;48.794;9.182;2022-10-17T10:26:17;4.60;;;3.57;;
4313;SDS011;2170;48.794;9.182;2022-10-17T10:28:50;8.43;;;4.30;;
4313;SDS011;2170;48.794;9.182;2022-10-17T10:31:25;6.47;;;3.80;;
4313;SDS011;2170;48.794;9.182;2022-10-17T10:33:52;5.30;;;3.80;;
4313;SDS011;2170;48.794;9.182;2022-10-17T10:36:20;7.23;;;4.20;;
4313;SDS011;2170;48.794;9.182;2022-10-17T10:38:50;6.77;;;4.17;;
4313;SDS011;2170;48.794;9.182;2022-10-17T10:41:18;7.93;;;4.17;;
4313;SDS011;2170;48.794;9.182;2022-10-17T10:43:46;10.97;;;4.17;;
4313;SDS011;2170;48.794;9.182;2022-10-17T10:46:17;7.37;;;3.97;;
4313;SDS011;2170;48.794;9.182;2022-10-17T10:48:52;5.17;;;3.40;;
4313;SDS011;2170;48.794;9.182;2022-10-17T10:51:22;4.60;;;3.40;;
4313;SDS011;2170;48.794;9.182;2022-10-17T10:53:50;3.70;;;3.40;;
4313;SDS011;2170;48.794;9.182;2022-10-17T10:56:19;5.00;;;3.37;;
4313;SDS011;2170;48.794;9.182;2022-10-17T10:58:51;3.33;;;3.03;;
4313;SDS011;2170;48.794;9.182;2022-10-17T11:01:21;4.60;;;3.00;;
4313;SDS011;2170;48.794;9.182;2022-10-17T11:04:06;4.90;;;2.57;;
4313;SDS011;2170;48.794;9.182;2022-10-17T11:06:34;2.90;;;2.07;;
4313;SDS011;2170;48.794;9.182;2022-10-17T11:09:06;2.50;;;2.30;;
4313;SDS011;2170;48.794;9.182;2022-10-17T11:11:36;4.03;;;2.10;;
4313;SDS011;2170;48.794;9.182;2022-10-17T11:14:05;7.40;;;2.50;;
4313;SDS011;2170;48.794;9.182;2022-10-17T11:16:36;3.37;;;2.50;;
4313;SDS011;2170;48.794;9.182;2022-10-17T11:19:09;6.27;;;2.47;;
4313;SDS011;2170;48.794;9.182;2022-10-17T11:21:40;5.17;;;2.27;;
4313;SDS011;2170;48.794;9.182;2022-10-17T11:24:11;6.63;;;2.40;;
4313;SDS011;2170;48.794;9.182;2022-10-17T11:26:40;5.50;;;2.77;;
4313;SDS011;2170;48.794;9.182;2022-10-17T11:29:09;4.50;;;2.30;;
4313;SDS011;2170;48.794;9.182;2022-10-17T11:31:37;4.30;;;2.40;;
4313;SDS011;2170;48.794;9.182;2022-10-17T11:34:06;4.37;;;2.10;;
4313;SDS011;2170;48.794;9.182;2022-10-17T11:36:38;8.30;;;2.63;;
4313;SDS011;2170;48.794;9.182;2022-10-17T11:39:09;4.90;;;2.40;;
4313;SDS011;2170;48.794;9.182;2022-10-17T11:41:39;1.90;;;1.67;;
4313;SDS011;2170;48.794;9.182;2022-10-17T11:44:11;4.33;;;2.10;;
4313;SDS011;2170;48.794;9.182;2022-10-17T11:46:39;3.13;;;1.80;;
4313;SDS011;2170;48.794;9.182;2022-10-17T11:49:10;1.90;;;1.77;;
4313;SDS011;2170;48.794;9.182;2022-10-17T11:51:42;2.60;;;1.70;;
4313;SDS011;2170;48.794;9.182;2022-10-17T11:54:12;4.87;;;1.63;;
4313;SDS011;2170;48.794;9.182;2022-10-17T11:56:41;2.47;;;1.63;;
4313;SDS011;2170;48.794;9.182;2022-10-17T11:59:18;2.17;;;1.70;;
4313;SDS011;2170;48.794;9.182;2022-10-17T12:01:51;3.70;;;1.83;;
4313;SDS011;2170;48.794;9.182;2022-10-17T12:04:21;2.07;;;1.87;;
4313;SDS011;2170;48.794;9.182;2022-10-17T12:06:58;1.90;;;1.77;;
4313;SDS011;2170;48.794;9.182;2022-10-17T12:09:28;4.13;;;1.60;;
4313;SDS011;2170;48.794;9.182;2022-10-17T12:11:58;2.30;;;2.03;;
4313;SDS011;2170;48.794;9.182;2022-10-17T12:14:39;3.80;;;1.97;;
4313;SDS011;2170;48.794;9.182;2022-10-17T12:17:20;2.30;;;1.90;;
4313;SDS011;2170;48.794;9.182;2022-10-17T12:19:48;3.67;;;2.00;;
4313;SDS011;2170;48.794;9.182;2022-10-17T12:22:23;2.27;;;1.70;;
4313;SDS011;2170;48.794;9.182;2022-10-17T12:27:40;3.40;;;1.60;;
4313;SDS011;2170;48.794;9.182;2022-10-17T12:30:15;5.20;;;2.43;;
4313;SDS011;2170;48.794;9.182;2022-10-17T12:32:52;4.37;;;2.13;;
4313;SDS011;2170;48.794;9.182;2022-10-17T12:35:20;2.43;;;1.63;;
4313;SDS011;2170;48.794;9.182;2022-10-17T12:46:02;3.87;;;1.70;;
4313;SDS011;2170;48.794;9.182;2022-10-17T12:51:15;1.73;;;1.63;;
4313;SDS011;2170;48.794;9.182;2022-10-17T12:53:44;2.97;;;1.90;;
4313;SDS011;2170;48.794;9.182;2022-10-17T12:56:15;2.03;;;1.83;;
4313;SDS011;2170;48.794;9.182;2022-10-17T12:58:43;4.83;;;1.60;;
4313;SDS011;2170;48.794;9.182;2022-10-17T13:01:13;4.20;;;1.70;;
4313;SDS011;2170;48.794;9.182;2022-10-17T13:03:43;2.10;;;1.77;;
4313;SDS011;2170;48.794;9.182;2022-10-17T13:06:13;3.27;;;2.30;;
4313;SDS011;2170;48.794;9.182;2022-10-17T13:08:42;2.80;;;1.77;;
4313;SDS011;2170;48.794;9.182;2022-10-17T13:11:09;2.03;;;1.87;;
4313;SDS011;2170;48.794;9.182;2022-10-17T13:13:40;2.33;;;2.13;;
4313;SDS011;2170;48.794;9.182;2022-10-17T13:16:08;3.40;;;2.17;;
4313;SDS011;2170;48.794;9.182;2022-10-17T13:18:36;2.87;;;2.40;;
4313;SDS011;2170;48.794;9.182;2022-10-17T13:21:04;5.37;;;2.93;;
4313;SDS011;2170;48.794;9.182;2022-10-17T13:23:32;5.33;;;2.27;;
4313;SDS011;2170;48.794;9.182;2022-10-17T13:26:04;8.07;;;2.73;;
4313;SDS011;2170;48.794;9.182;2022-10-17T13:28:31;3.27;;;3.07;;
4313;SDS011;2170;48.794;9.182;2022-10-17T13:30:59;5.00;;;2.30;;
4313;SDS011;2170;48.794;9.182;2022-10-17T13:33:33;2.83;;;2.63;;
4313;SDS011;2170;48.794;9.182;2022-10-17T13:36:03;2.83;;;2.63;;
4313;SDS011;2170;48.794;9.182;2022-10-17T13:38:32;3.43;;;2.47;;
4313;SDS011;2170;48.794;9.182;2022-10-17T13:41:01;4.60;;;2.70;;
4313;SDS011;2170;48.794;9.182;2022-10-17T13:43:29;3.07;;;2.40;;
4313;SDS011;2170;48.794;9.182;2022-10-17T13:45:58;3.00;;;2.70;;
4313;SDS011;2170;48.794;9.182;2022-10-17T13:48:30;3.33;;;2.57;;
4313;SDS011;2170;48.794;9.182;2022-10-17T13:50:58;2.37;;;2.17;;
4313;SDS011;2170;48.794;9.182;2022-10-17T13:53:29;4.00;;;2.80;;
4313;SDS011;2170;48.794;9.182;2022-10-17T13:55:57;5.70;;;2.27;;
4313;SDS011;2170;48.794;9.182;2022-10-17T13:58:25;4.77;;;2.10;;
4313;SDS011;2170;48.794;9.182;2022-10-17T14:00:55;4.40;;;2.23;;
4313;SDS011;2170;48.794;9.182;2022-10-17T14:03:22;3.60;;;2.20;;
4313;SDS011;2170;48.794;9.182;2022-10-17T14:08:50;3.30;;;2.00;;
4313;SDS011;2170;48.794;9.182;2022-10-17T14:11:21;3.63;;;2.30;;
4313;SDS011;2170;48.794;9.182;2022-10-17T14:13:49;2.70;;;2.50;;
4313;SDS011;2170;48.794;9.182;2022-10-17T14:16:17;4.43;;;2.07;;
4313;SDS011;2170;48.794;9.182;2022-10-17T14:18:45;2.63;;;1.97;;
4313;SDS011;2170;48.794;9.182;2022-10-17T14:21:16;2.43;;;2.23;;
4313;SDS011;2170;48.794;9.182;2022-10-17T14:23:44;4.53;;;2.13;;
4313;SDS011;2170;48.794;9.182;2022-10-17T14:26:13;5.27;;;2.27;;
4313;SDS011;2170;48.794;9.182;2022-10-17T14:28:41;2.13;;;2.00;;
4313;SDS011;2170;48.794;9.182;2022-10-17T14:31:17;5.20;;;2.57;;
4313;SDS011;2170;48.794;9.182;2022-10-17T14:33:46;4.40;;;2.30;;
4313;SDS011;2170;48.794;9.182;2022-10-17T14:36:13;5.50;;;2.20;;
4313;SDS011;2170;48.794;9.182;2022-10-17T14:38:43;2.77;;;1.93;;
4313;SDS011;2170;48.794;9.182;2022-10-17T14:41:14;2.77;;;2.10;;
4313;SDS011;2170;48.794;9.182;2022-10-17T14:43:43;2.60;;;2.40;;
4313;SDS011;2170;48.794;9.182;2022-10-17T14:46:12;3.20;;;2.30;;
4313;SDS011;2170;48.794;9.182;2022-10-17T14:48:40;5.43;;;2.97;;
4313;SDS011;2170;48.794;9.182;2022-10-17T14:51:09;5.83;;;2.47;;
4313;SDS011;2170;48.794;9.182;2022-10-17T14:53:36;2.83;;;2.57;;
4313;SDS011;2170;48.794;9.182;2022-10-17T14:56:04;2.93;;;2.10;;
4313;SDS011;2170;48.794;9.182;2022-10-17T14:58:33;2.53;;;2.33;;
4313;SDS011;2170;48.794;9.182;2022-10-17T15:01:01;4.97;;;2.80;;
4313;SDS011;2170;48.794;9.182;2022-10-17T15:03:28;3.77;;;2.50;;
4313;SDS011;2170;48.794;9.182;2022-10-17T15:05:55;3.37;;;2.53;;
4313;SDS011;2170;48.794;9.182;2022-10-17T15:08:22;3.07;;;2.13;;
4313;SDS011;2170;48.794;9.182;2022-10-17T15:10:50;6.50;;;2.40;;
4313;SDS011;2170;48.794;9.182;2022-10-17T15:13:17;3.40;;;2.67;;
4313;SDS011;2170;48.794;9.182;2022-10-17T15:15:45;3.13;;;2.50;;
4313;SDS011;2170;48.794;9.182;2022-10-17T15:18:15;2.00;;;1.90;;
4313;SDS011;2170;48.794;9.182;2022-10-17T15:20:42;2.50;;;2.20;;
4313;SDS011;2170;48.794;9.182;2022-10-17T15:23:09;5.53;;;2.50;;
4313;SDS011;2170;48.794;9.182;2022-10-17T15:25:36;2.70;;;2.30;;
4313;SDS011;2170;48.794;9.182;2022-10-17T15:28:04;3.53;;;2.40;;
4313;SDS011;2170;48.794;9.182;2022-10-17T15:30:33;3.00;;;2.70;;
4313;SDS011;2170;48.794;9.182;2022-10-17T15:33:02;4.23;;;2.63;;
4313;SDS011;2170;48.794;9.182;2022-10-17T15:35:29;2.70;;;2.50;;
4313;SDS011;2170;48.794;9.182;2022-10-17T15:37:56;3.43;;;3.13;;
4313;SDS011;2170;48.794;9.182;2022-10-17T15:40:25;4.17;;;3.00;;
4313;SDS011;2170;48.794;9.182;2022-10-17T15:42:53;3.90;;;2.43;;
4313;SDS011;2170;48.794;9.182;2022-10-17T15:45:21;4.83;;;3.87;;